createdAt,value
2022-08-14T00:01:09.997Z,19.67
2022-08-14T00:03:38.557Z,19.62
2022-08-14T00:06:14.079Z,19.62
2022-08-14T00:08:52.576Z,19.61
2022-08-14T00:11:19.740Z,19.58
2022-08-14T00:13:52.451Z,19.63
2022-08-14T00:16:41.107Z,19.59
2022-08-14T00:19:21.176Z,19.65
2022-08-14T00:21:50.795Z,19.64
2022-08-14T00:24:28.636Z,19.70
2022-08-14T00:27:02.165Z,19.66
2022-08-14T00:29:39.857Z,19.67
2022-08-14T00:32:50.099Z,19.76
2022-08-14T00:34:53.693Z,19.70
2022-08-14T00:37:20.965Z,19.64
2022-08-14T00:39:47.516Z,19.73
2022-08-14T00:42:21.355Z,19.82
2022-08-14T00:45:09.930Z,19.85
2022-08-14T00:47:43.232Z,19.77
2022-08-14T00:50:16.707Z,19.81
2022-08-14T00:52:50.957Z,19.82
2022-08-14T00:55:19.940Z,19.88
2022-08-14T00:58:07.543Z,19.82
2022-08-14T01:00:37.354Z,19.86
2022-08-14T01:03:09.995Z,19.91
2022-08-14T01:05:50.953Z,19.90
2022-08-14T01:08:52.301Z,19.91
2022-08-14T01:11:07.868Z,19.98
2022-08-14T01:13:42.610Z,19.96
2022-08-14T01:16:15.112Z,19.94
2022-08-14T01:19:01.373Z,19.90
2022-08-14T01:21:34.881Z,19.86
2022-08-14T01:24:24.734Z,19.88
2022-08-14T01:27:00.131Z,19.91
2022-08-14T01:29:59.094Z,19.95
2022-08-14T01:32:22.888Z,19.85
2022-08-14T01:35:17.301Z,19.85
2022-08-14T01:37:44.510Z,19.80
2022-08-14T01:40:15.528Z,19.81
2022-08-14T01:42:46.881Z,19.86
2022-08-14T01:45:17.921Z,19.80
2022-08-14T01:47:52.582Z,19.77
2022-08-14T01:50:30.658Z,19.76
2022-08-14T01:53:01.238Z,19.80
2022-08-14T01:55:31.907Z,19.75
2022-08-14T01:58:18.524Z,19.71
2022-08-14T02:00:47.851Z,19.69
2022-08-14T02:03:16.114Z,19.65
2022-08-14T02:05:43.555Z,19.65
2022-08-14T02:08:10.662Z,19.56
2022-08-14T02:10:46.603Z,19.51
2022-08-14T02:13:15.984Z,19.48
2022-08-14T02:15:43.694Z,19.51
2022-08-14T02:18:10.559Z,19.49
2022-08-14T02:20:39.991Z,19.50
2022-08-14T02:23:08.186Z,19.55
2022-08-14T02:25:35.506Z,19.48
2022-08-14T02:28:25.075Z,19.48
2022-08-14T02:30:48.674Z,19.54
2022-08-14T02:33:19.573Z,19.42
2022-08-14T02:35:53.359Z,19.27
2022-08-14T02:38:30.005Z,19.25
2022-08-14T02:41:01.064Z,19.25
2022-08-14T02:43:36.584Z,19.34
2022-08-14T02:46:04.185Z,19.30
2022-08-14T02:49:04.970Z,19.25
2022-08-14T02:51:23.525Z,19.36
2022-08-14T02:53:51.857Z,19.36
2022-08-14T02:56:30.224Z,19.29
2022-08-14T02:59:08.480Z,19.25
2022-08-14T03:01:43.468Z,19.26
2022-08-14T03:04:20.176Z,19.22
2022-08-14T03:06:58.043Z,19.23
2022-08-14T03:10:26.437Z,19.19
2022-08-14T03:12:31.500Z,19.09
2022-08-14T03:15:03.207Z,19.02
2022-08-14T03:17:32.109Z,19.06
2022-08-14T03:20:11.105Z,19.06
2022-08-14T03:22:41.846Z,19.07
2022-08-14T03:25:10.629Z,19.05
2022-08-14T03:27:48.556Z,19.01
2022-08-14T03:30:38.906Z,19.02
2022-08-14T03:33:08.404Z,19.00
2022-08-14T03:35:39.850Z,19.01
2022-08-14T03:39:11.640Z,19.02
2022-08-14T03:40:56.774Z,19.03
2022-08-14T03:43:25.445Z,18.97
2022-08-14T03:45:55.435Z,18.90
2022-08-14T03:48:30.145Z,19.04
2022-08-14T03:50:58.049Z,19.07
2022-08-14T03:53:26.283Z,19.07
2022-08-14T03:55:56.108Z,19.08
2022-08-14T03:58:36.731Z,19.14
2022-08-14T04:01:06.466Z,19.13
2022-08-14T04:03:37.385Z,19.20
2022-08-14T04:06:04.995Z,19.27
2022-08-14T04:08:36.982Z,19.31
2022-08-14T04:11:08.011Z,19.27
2022-08-14T04:13:39.586Z,19.25
2022-08-14T04:16:12.647Z,19.28
2022-08-14T04:18:42.527Z,19.35
2022-08-14T04:21:10.492Z,19.43
2022-08-14T04:23:39.788Z,19.38
2022-08-14T04:26:14.232Z,19.49
2022-08-14T04:29:07.590Z,19.61
2022-08-14T04:33:10.489Z,19.53
2022-08-14T04:34:24.065Z,19.68
2022-08-14T04:37:12.807Z,19.71
2022-08-14T04:39:58.839Z,19.84
2022-08-14T04:42:47.272Z,19.81
2022-08-14T04:45:19.743Z,19.88
2022-08-14T04:48:05.557Z,19.86
2022-08-14T04:50:43.862Z,19.79
2022-08-14T04:53:13.880Z,19.76
2022-08-14T04:55:42.895Z,19.78
2022-08-14T04:58:21.951Z,19.80
2022-08-14T05:00:58.097Z,19.95
2022-08-14T05:03:27.629Z,20.07
2022-08-14T05:05:58.117Z,20.06
2022-08-14T05:08:32.155Z,20.08
2022-08-14T05:11:13.470Z,20.11
2022-08-14T05:14:33.065Z,20.13
2022-08-14T05:16:31.639Z,20.28
2022-08-14T05:19:17.602Z,20.33
2022-08-14T05:22:00.580Z,20.48
2022-08-14T05:24:31.668Z,20.65
2022-08-14T05:26:59.341Z,20.79
2022-08-14T05:29:26.387Z,20.81
2022-08-14T05:31:57.319Z,21.02
2022-08-14T05:34:32.052Z,21.18
2022-08-14T05:37:03.224Z,21.23
2022-08-14T05:39:31.136Z,21.29
2022-08-14T05:41:58.401Z,21.26
2022-08-14T05:44:29.589Z,21.43
2022-08-14T05:46:57.370Z,21.59
2022-08-14T05:49:32.681Z,21.74
2022-08-14T05:52:03.895Z,21.71
2022-08-14T05:54:36.539Z,21.70
2022-08-14T05:57:04.965Z,21.75
2022-08-14T05:59:38.657Z,21.89
2022-08-14T06:02:07.795Z,22.06
2022-08-14T06:04:36.906Z,22.06
2022-08-14T06:07:04.328Z,22.22
2022-08-14T06:09:35.524Z,22.41
2022-08-14T06:12:10.601Z,23.17
2022-08-14T06:14:38.889Z,24.34
2022-08-14T06:17:05.982Z,24.86
2022-08-14T06:19:33.096Z,25.02
2022-08-14T06:21:59.941Z,24.72
2022-08-14T06:24:27.604Z,23.53
2022-08-14T06:27:04.517Z,24.16
2022-08-14T06:29:34.959Z,24.73
2022-08-14T06:32:36.547Z,23.83
2022-08-14T06:35:10.769Z,23.77
2022-08-14T06:37:46.895Z,23.44
2022-08-14T06:40:27.183Z,23.43
2022-08-14T06:43:00.549Z,23.37
2022-08-14T06:45:31.387Z,22.72
2022-08-14T06:47:58.792Z,22.84
2022-08-14T06:50:28.713Z,23.29
2022-08-14T06:52:58.535Z,23.84
2022-08-14T06:55:28.106Z,25.47
2022-08-14T06:57:56.519Z,25.87
2022-08-14T07:00:30.972Z,25.34
2022-08-14T07:03:17.170Z,24.82
2022-08-14T07:05:55.650Z,24.30
2022-08-14T07:08:31.095Z,24.20
2022-08-14T07:11:04.232Z,24.61
2022-08-14T07:13:31.183Z,25.28
2022-08-14T07:15:58.929Z,25.58
2022-08-14T07:18:29.208Z,26.31
2022-08-14T07:20:57.462Z,26.77
2022-08-14T07:23:25.811Z,26.77
2022-08-14T07:25:55.355Z,26.53
2022-08-14T07:28:43.361Z,26.61
2022-08-14T07:31:12.283Z,26.85
2022-08-14T07:33:46.666Z,27.06
2022-08-14T07:36:27.274Z,28.93
2022-08-14T07:39:00.942Z,30.11
2022-08-14T07:41:31.282Z,31.22
2022-08-14T07:44:22.425Z,31.00
2022-08-14T07:46:47.936Z,30.78
2022-08-14T07:49:17.921Z,30.76
2022-08-14T07:51:45.323Z,30.42
2022-08-14T07:54:12.388Z,29.61
2022-08-14T07:56:47.510Z,29.01
2022-08-14T07:59:16.940Z,28.17
2022-08-14T08:01:51.171Z,28.21
2022-08-14T08:04:25.196Z,28.17
2022-08-14T08:06:53.758Z,28.04
2022-08-14T08:09:32.097Z,27.62
2022-08-14T08:12:05.062Z,27.76
2022-08-14T08:14:55.538Z,27.34
2022-08-14T08:17:25.616Z,27.65
2022-08-14T08:19:52.392Z,28.07
2022-08-14T08:22:21.280Z,28.01
2022-08-14T08:24:50.817Z,28.61
2022-08-14T08:27:19.930Z,28.16
2022-08-14T08:29:50.786Z,28.03
2022-08-14T08:32:18.507Z,27.66
2022-08-14T08:34:46.364Z,27.46
2022-08-14T08:37:14.751Z,27.35
2022-08-14T08:40:03.305Z,27.45
2022-08-14T08:42:38.250Z,26.63
2022-08-14T08:45:06.243Z,26.35
2022-08-14T08:47:40.409Z,26.53
2022-08-14T08:50:23.237Z,26.62
2022-08-14T08:53:02.049Z,26.47
2022-08-14T08:55:31.825Z,26.25
2022-08-14T08:58:05.441Z,26.13
2022-08-14T09:00:40.986Z,25.82
2022-08-14T09:03:12.307Z,25.96
2022-08-14T09:06:54.022Z,25.59
2022-08-14T09:08:55.728Z,26.06
2022-08-14T09:11:24.578Z,26.32
2022-08-14T09:13:52.645Z,26.35
2022-08-14T09:16:25.867Z,26.33
2022-08-14T09:18:53.932Z,26.59
2022-08-14T09:21:24.047Z,26.11
2022-08-14T09:24:29.325Z,26.28
2022-08-14T09:26:42.395Z,26.72
2022-08-14T09:29:11.471Z,26.91
2022-08-14T09:31:53.462Z,27.19
2022-08-14T09:34:27.961Z,27.51
2022-08-14T09:37:27.377Z,27.49
2022-08-14T09:40:20.939Z,27.09
2022-08-14T09:43:05.414Z,27.15
2022-08-14T09:45:40.280Z,26.82
2022-08-14T09:48:29.837Z,26.45
2022-08-14T09:54:17.921Z,26.25
2022-08-14T09:56:45.855Z,26.02
2022-08-14T09:59:16.167Z,26.22
2022-08-14T10:01:52.769Z,26.60
2022-08-14T10:04:33.745Z,26.69
2022-08-14T10:07:08.422Z,26.29
2022-08-14T10:10:00.023Z,26.33
2022-08-14T10:12:53.163Z,26.03
2022-08-14T10:15:25.951Z,25.97
2022-08-14T10:18:17.326Z,25.97
2022-08-14T10:21:01.038Z,26.05
2022-08-14T10:23:34.954Z,26.00
2022-08-14T10:26:07.240Z,26.08
2022-08-14T10:29:14.196Z,26.06
2022-08-14T10:31:40.187Z,26.00
2022-08-14T10:34:16.263Z,26.36
2022-08-14T10:36:48.094Z,26.69
2022-08-14T10:39:22.067Z,26.69
2022-08-14T10:41:53.786Z,26.79
2022-08-14T10:44:29.664Z,26.61
2022-08-14T10:47:41.474Z,26.33
2022-08-14T10:50:00.123Z,26.24
2022-08-14T10:52:33.891Z,26.43
2022-08-14T10:55:15.467Z,26.46
2022-08-14T10:57:57.495Z,26.84
2022-08-14T11:00:35.572Z,26.99
2022-08-14T11:03:15.741Z,26.97
2022-08-14T11:05:55.727Z,26.63
2022-08-14T11:08:35.445Z,26.80
2022-08-14T11:11:05.621Z,27.07
2022-08-14T11:13:34.932Z,27.25
2022-08-14T11:16:02.477Z,27.47
2022-08-14T11:18:40.197Z,27.25
2022-08-14T11:21:08.428Z,26.98
2022-08-14T11:23:39.882Z,27.44
2022-08-14T11:26:10.805Z,27.88
2022-08-14T11:28:48.144Z,27.98
2022-08-14T11:31:22.107Z,27.84
2022-08-14T11:33:58.192Z,28.02
2022-08-14T11:36:35.444Z,27.94
2022-08-14T11:39:34.495Z,28.04
2022-08-14T11:42:55.463Z,28.02
2022-08-14T11:45:11.148Z,27.98
2022-08-14T11:48:12.816Z,27.88
2022-08-14T11:50:37.630Z,27.77
2022-08-14T11:53:20.207Z,27.94
2022-08-14T11:55:46.955Z,27.99
2022-08-14T11:58:23.812Z,27.97
2022-08-14T12:00:53.881Z,27.96
2022-08-14T12:03:37.356Z,27.74
2022-08-14T12:06:27.851Z,27.69
2022-08-14T12:08:56.874Z,27.81
2022-08-14T12:11:44.105Z,27.82
2022-08-14T12:14:30.798Z,27.83
2022-08-14T12:17:11.751Z,27.64
2022-08-14T12:19:51.555Z,27.80
2022-08-14T12:22:33.953Z,27.69
2022-08-14T12:25:01.789Z,27.94
2022-08-14T12:27:59.226Z,28.28
2022-08-14T12:30:43.052Z,28.40
2022-08-14T12:33:35.331Z,28.52
2022-08-14T12:36:07.968Z,28.71
2022-08-14T12:38:43.712Z,28.64
2022-08-14T12:41:22.155Z,28.66
2022-08-14T12:44:01.905Z,28.79
2022-08-14T12:46:43.711Z,29.05
2022-08-14T12:49:16.419Z,29.27
2022-08-14T12:51:44.300Z,29.17
2022-08-14T12:54:27.052Z,29.17
2022-08-14T12:57:04.237Z,29.17
2022-08-14T12:59:37.279Z,29.22
2022-08-14T13:02:25.991Z,29.07
2022-08-14T13:04:55.951Z,28.88
2022-08-14T13:07:24.267Z,28.67
2022-08-14T13:10:00.165Z,28.68
2022-08-14T13:12:32.555Z,28.97
2022-08-14T13:15:18.211Z,29.29
2022-08-14T13:17:52.113Z,29.36
2022-08-14T13:20:26.564Z,29.53
2022-08-14T13:22:56.236Z,29.54
2022-08-14T13:25:25.926Z,29.48
2022-08-14T13:27:55.203Z,29.49
2022-08-14T13:30:24.966Z,29.59
2022-08-14T13:32:53.786Z,29.70
2022-08-14T13:35:22.682Z,29.58
2022-08-14T13:37:52.313Z,29.42
2022-08-14T13:40:26.529Z,29.29
2022-08-14T13:42:56.651Z,29.44
2022-08-14T13:45:33.629Z,29.12
2022-08-14T13:48:27.692Z,29.11
2022-08-14T13:50:59.276Z,29.55
2022-08-14T13:53:33.324Z,29.45
2022-08-14T13:56:00.514Z,29.60
2022-08-14T13:58:30.260Z,29.74
2022-08-14T14:01:00.837Z,29.67
2022-08-14T14:03:30.251Z,29.50
2022-08-14T14:05:58.920Z,29.65
2022-08-14T14:08:45.675Z,29.77
2022-08-14T14:11:16.059Z,29.75
2022-08-14T14:13:45.683Z,29.65
2022-08-14T14:16:15.535Z,28.98
2022-08-14T14:18:56.359Z,29.00
2022-08-14T14:21:28.744Z,29.23
2022-08-14T14:23:56.394Z,29.29
2022-08-14T14:26:24.717Z,29.02
2022-08-14T14:28:56.482Z,29.09
2022-08-14T14:31:29.579Z,29.14
2022-08-14T14:34:00.966Z,29.04
2022-08-14T14:36:35.565Z,29.20
2022-08-14T14:39:05.590Z,29.26
2022-08-14T14:41:38.554Z,29.27
2022-08-14T14:44:16.483Z,29.52
2022-08-14T14:46:50.782Z,29.90
2022-08-14T14:49:31.935Z,29.95
2022-08-14T14:52:17.172Z,30.05
2022-08-14T14:54:50.369Z,29.58
2022-08-14T14:57:18.587Z,29.60
2022-08-14T14:59:50.016Z,29.51
2022-08-14T15:02:29.234Z,29.42
2022-08-14T15:04:56.349Z,29.69
2022-08-14T15:07:23.205Z,29.55
2022-08-14T15:09:50.003Z,29.31
2022-08-14T15:12:56.571Z,29.41
2022-08-14T15:15:08.505Z,29.54
2022-08-14T15:17:41.668Z,29.46
2022-08-14T15:20:30.145Z,28.95
2022-08-14T15:23:11.856Z,28.74
2022-08-14T15:25:41.032Z,28.82
2022-08-14T15:28:11.671Z,28.77
2022-08-14T15:30:44.232Z,28.88
2022-08-14T15:33:14.258Z,28.62
2022-08-14T15:35:44.957Z,28.49
2022-08-14T15:38:17.538Z,28.64
2022-08-14T15:40:44.633Z,28.84
2022-08-14T15:43:23.239Z,28.93
2022-08-14T15:45:54.769Z,28.73
2022-08-14T15:48:23.320Z,28.51
2022-08-14T15:50:50.951Z,28.44
2022-08-14T15:53:18.325Z,28.31
2022-08-14T15:55:46.588Z,28.30
2022-08-14T15:58:14.714Z,28.40
2022-08-14T16:00:59.985Z,28.33
2022-08-14T16:03:37.178Z,28.24
2022-08-14T16:06:15.718Z,28.25
2022-08-14T16:08:46.433Z,28.24
2022-08-14T16:11:17.097Z,28.12
2022-08-14T16:13:45.211Z,27.97
2022-08-14T16:16:47.587Z,27.90
2022-08-14T16:19:10.045Z,27.78
2022-08-14T16:21:40.316Z,27.73
2022-08-14T16:24:27.076Z,27.56
2022-08-14T16:27:00.664Z,27.33
2022-08-14T16:29:30.166Z,27.22
2022-08-14T16:31:59.052Z,27.22
2022-08-14T16:34:44.118Z,27.30
2022-08-14T16:37:13.253Z,27.25
2022-08-14T16:39:41.899Z,27.23
2022-08-14T16:42:38.360Z,27.23
2022-08-14T16:44:58.224Z,27.27
2022-08-14T16:47:25.326Z,27.32
2022-08-14T16:50:04.311Z,27.31
2022-08-14T16:52:44.216Z,27.32
2022-08-14T16:55:13.895Z,27.26
2022-08-14T16:57:54.316Z,27.23
2022-08-14T17:00:44.274Z,27.12
2022-08-14T17:03:18.186Z,26.92
2022-08-14T17:05:46.849Z,26.61
2022-08-14T17:08:32.995Z,26.45
2022-08-14T17:11:10.139Z,26.43
2022-08-14T17:13:59.591Z,26.23
2022-08-14T17:16:37.401Z,26.16
2022-08-14T17:19:05.849Z,26.15
2022-08-14T17:21:41.770Z,26.14
2022-08-14T17:24:56.449Z,26.08
2022-08-14T17:27:03.871Z,26.01
2022-08-14T17:29:34.943Z,25.90
2022-08-14T17:32:27.986Z,25.68
2022-08-14T17:37:46.199Z,25.41
2022-08-14T17:40:19.530Z,25.33
2022-08-14T17:42:51.829Z,25.30
2022-08-14T17:45:43.686Z,25.21
2022-08-14T17:49:10.877Z,25.04
2022-08-14T17:51:23.238Z,24.96
2022-08-14T17:53:53.363Z,24.92
2022-08-14T17:56:20.954Z,24.93
2022-08-14T17:58:49.349Z,24.77
2022-08-14T18:01:17.439Z,24.73
2022-08-14T18:03:53.603Z,24.56
2022-08-14T18:06:39.552Z,24.38
2022-08-14T18:09:26.087Z,24.28
2022-08-14T18:11:57.925Z,24.10
2022-08-14T18:14:32.620Z,24.04
2022-08-14T18:17:13.676Z,24.05
2022-08-14T18:19:45.085Z,24.00
2022-08-14T18:22:24.058Z,23.91
2022-08-14T18:24:59.398Z,23.84
2022-08-14T18:27:43.872Z,23.72
2022-08-14T18:30:33.282Z,23.71
2022-08-14T18:32:59.699Z,23.78
2022-08-14T18:35:59.080Z,23.95
2022-08-14T18:38:46.107Z,23.95
2022-08-14T18:41:36.224Z,23.99
2022-08-14T18:44:10.634Z,23.95
2022-08-14T18:47:10.024Z,23.98
2022-08-14T18:50:26.406Z,23.94
2022-08-14T18:52:53.346Z,23.93
2022-08-14T18:55:20.958Z,23.46
2022-08-14T18:58:27.548Z,22.77
2022-08-14T19:00:56.245Z,22.15
2022-08-14T19:03:37.125Z,21.56
2022-08-14T19:06:07.005Z,21.25
2022-08-14T19:08:47.036Z,21.10
2022-08-14T19:11:32.414Z,20.91
2022-08-14T19:14:04.714Z,20.80
2022-08-14T19:16:34.865Z,20.66
2022-08-14T19:19:04.361Z,20.61
2022-08-14T19:21:43.553Z,20.52
2022-08-14T19:24:27.494Z,20.50
2022-08-14T19:27:19.463Z,20.44
2022-08-14T19:29:51.068Z,20.46
2022-08-14T19:32:36.491Z,20.46
2022-08-14T19:35:17.004Z,20.59
2022-08-14T19:37:55.202Z,20.55
2022-08-14T19:40:34.560Z,20.57
2022-08-14T19:43:06.525Z,20.56
2022-08-14T19:45:37.048Z,20.58
2022-08-14T19:48:10.529Z,20.53
2022-08-14T19:50:41.318Z,20.57
2022-08-14T19:53:17.304Z,20.58
2022-08-14T19:55:54.929Z,20.53
2022-08-14T19:58:28.004Z,20.41
2022-08-14T20:00:57.281Z,20.42
2022-08-14T20:03:24.871Z,20.33
2022-08-14T20:06:05.331Z,20.28
2022-08-14T20:10:58.500Z,20.33
2022-08-14T20:11:58.591Z,20.42
2022-08-14T20:14:29.639Z,20.52
2022-08-14T20:17:05.527Z,20.54
2022-08-14T20:19:38.044Z,20.60
2022-08-14T20:22:36.225Z,20.68
2022-08-14T20:25:11.644Z,20.63
2022-08-14T20:27:41.055Z,20.61
2022-08-14T20:30:33.567Z,20.56
2022-08-14T20:33:07.687Z,20.49
2022-08-14T20:35:43.665Z,20.39
2022-08-14T20:38:31.189Z,20.43
2022-08-14T20:41:09.486Z,20.37
2022-08-14T20:43:59.417Z,20.29
2022-08-14T20:46:31.858Z,20.26
2022-08-14T20:48:59.621Z,20.26
2022-08-14T20:51:43.385Z,20.15
2022-08-14T20:54:21.563Z,20.18
2022-08-14T20:57:43.644Z,20.13
2022-08-14T21:00:12.041Z,20.14
2022-08-14T21:02:50.012Z,20.10
2022-08-14T21:05:22.515Z,20.08
2022-08-14T21:08:07.877Z,20.02
2022-08-14T21:10:44.106Z,20.07
2022-08-14T21:14:09.074Z,20.14
2022-08-14T21:16:03.058Z,20.19
2022-08-14T21:18:35.172Z,20.17
2022-08-14T21:21:18.076Z,20.17
2022-08-14T21:23:54.962Z,20.13
2022-08-14T21:26:51.201Z,20.13
2022-08-14T21:29:11.387Z,20.14
2022-08-14T21:31:38.965Z,20.12
2022-08-14T21:34:27.528Z,20.17
2022-08-14T21:36:54.632Z,20.19
2022-08-14T21:39:24.347Z,20.24
2022-08-14T21:41:58.421Z,20.24
2022-08-14T21:44:42.600Z,20.24
2022-08-14T21:47:10.143Z,20.08
2022-08-14T21:49:39.096Z,20.09
2022-08-14T21:52:51.904Z,20.07
2022-08-14T21:55:01.922Z,20.01
2022-08-14T21:58:46.371Z,20.02
2022-08-14T22:00:36.695Z,20.05
2022-08-14T22:03:09.829Z,20.08
2022-08-14T22:05:39.096Z,19.97
2022-08-14T22:08:06.692Z,19.96
2022-08-14T22:10:35.014Z,19.98
2022-08-14T22:13:02.106Z,20.05
2022-08-14T22:15:29.916Z,19.99
2022-08-14T22:17:57.759Z,19.87
2022-08-14T22:20:28.768Z,19.81
2022-08-14T22:22:56.912Z,19.77
2022-08-14T22:25:33.330Z,19.70
2022-08-14T22:28:01.610Z,19.68
2022-08-14T22:30:28.145Z,19.64
2022-08-14T22:32:56.825Z,19.68
2022-08-14T22:35:25.568Z,19.61
2022-08-14T22:38:36.549Z,19.64
2022-08-14T22:41:14.885Z,19.65
2022-08-14T22:43:27.568Z,19.63
2022-08-14T22:45:58.272Z,19.57
2022-08-14T22:48:29.696Z,19.58
2022-08-14T22:50:56.336Z,19.56
2022-08-14T22:53:24.072Z,19.60
2022-08-14T22:55:56.686Z,19.59
2022-08-14T22:58:31.440Z,19.59
2022-08-14T23:01:01.041Z,19.59
2022-08-14T23:03:27.693Z,19.61
2022-08-14T23:05:55.531Z,19.50
2022-08-14T23:08:59.739Z,19.53
2022-08-14T23:11:10.335Z,19.51
2022-08-14T23:13:39.171Z,19.53
2022-08-14T23:16:06.887Z,19.54
2022-08-14T23:18:34.561Z,19.47
2022-08-14T23:21:01.577Z,19.49
2022-08-14T23:23:28.049Z,19.57
2022-08-14T23:26:00.265Z,19.46
2022-08-14T23:28:58.104Z,19.42
2022-08-14T23:31:34.346Z,19.44
2022-08-14T23:34:06.752Z,19.46
2022-08-14T23:36:37.853Z,19.51
2022-08-14T23:39:21.061Z,19.47
2022-08-14T23:41:52.698Z,19.47
2022-08-14T23:44:22.129Z,19.48
2022-08-14T23:46:49.535Z,19.38
2022-08-14T23:49:21.259Z,19.37
2022-08-14T23:52:49.444Z,19.45
2022-08-14T23:54:49.379Z,19.46
2022-08-14T23:57:19.339Z,19.46
2022-08-14T23:59:54.696Z,19.45
